sensor_id;sensor_type;location;lat;lon;timestamp;temperature;humidity
76293;DHT22;67256;51.154;4.164;2023-09-07T00:01:05;23.20;67.20
76293;DHT22;67256;51.154;4.164;2023-09-07T00:03:31;23.20;67.30
76293;DHT22;67256;51.154;4.164;2023-09-07T00:05:57;23.20;67.40
76293;DHT22;67256;51.154;4.164;2023-09-07T00:08:22;23.20;67.30
76293;DHT22;67256;51.154;4.164;2023-09-07T00:10:50;23.20;67.30
76293;DHT22;67256;51.154;4.164;2023-09-07T00:13:15;23.10;67.40
76293;DHT22;67256;51.154;4.164;2023-09-07T00:15:42;23.20;67.50
76293;DHT22;67256;51.154;4.164;2023-09-07T00:18:08;23.20;67.30
76293;DHT22;67256;51.154;4.164;2023-09-07T00:20:34;23.20;67.50
76293;DHT22;67256;51.154;4.164;2023-09-07T00:23:00;23.00;67.90
76293;DHT22;67256;51.154;4.164;2023-09-07T00:25:26;23.00;67.90
76293;DHT22;67256;51.154;4.164;2023-09-07T00:27:51;23.10;68.00
76293;DHT22;67256;51.154;4.164;2023-09-07T00:30:17;23.10;67.90
76293;DHT22;67256;51.154;4.164;2023-09-07T00:32:43;23.00;67.90
76293;DHT22;67256;51.154;4.164;2023-09-07T00:35:09;23.00;68.10
76293;DHT22;67256;51.154;4.164;2023-09-07T00:37:34;23.00;68.60
76293;DHT22;67256;51.154;4.164;2023-09-07T00:40:00;22.90;68.50
76293;DHT22;67256;51.154;4.164;2023-09-07T00:42:26;22.90;68.80
76293;DHT22;67256;51.154;4.164;2023-09-07T00:44:51;22.80;68.90
76293;DHT22;67256;51.154;4.164;2023-09-07T00:47:17;22.80;69.10
76293;DHT22;67256;51.154;4.164;2023-09-07T00:49:43;22.80;69.00
76293;DHT22;67256;51.154;4.164;2023-09-07T00:52:09;22.50;70.20
76293;DHT22;67256;51.154;4.164;2023-09-07T00:54:35;22.60;69.80
76293;DHT22;67256;51.154;4.164;2023-09-07T00:57:02;22.60;69.80
76293;DHT22;67256;51.154;4.164;2023-09-07T00:59:27;22.60;69.70
76293;DHT22;67256;51.154;4.164;2023-09-07T01:01:53;22.60;69.70
76293;DHT22;67256;51.154;4.164;2023-09-07T01:04:18;22.60;70.10
76293;DHT22;67256;51.154;4.164;2023-09-07T01:06:45;22.50;70.50
76293;DHT22;67256;51.154;4.164;2023-09-07T01:09:30;22.50;70.30
76293;DHT22;67256;51.154;4.164;2023-09-07T01:11:57;22.50;70.20
76293;DHT22;67256;51.154;4.164;2023-09-07T01:14:23;22.40;70.60
76293;DHT22;67256;51.154;4.164;2023-09-07T01:16:48;22.30;71.10
76293;DHT22;67256;51.154;4.164;2023-09-07T01:19:14;22.20;71.30
76293;DHT22;67256;51.154;4.164;2023-09-07T01:21:41;22.30;71.20
76293;DHT22;67256;51.154;4.164;2023-09-07T01:24:10;22.30;71.20
76293;DHT22;67256;51.154;4.164;2023-09-07T01:26:36;22.30;71.30
76293;DHT22;67256;51.154;4.164;2023-09-07T01:29:08;22.20;71.20
76293;DHT22;67256;51.154;4.164;2023-09-07T01:31:37;22.20;71.50
76293;DHT22;67256;51.154;4.164;2023-09-07T01:34:05;22.20;71.50
76293;DHT22;67256;51.154;4.164;2023-09-07T01:36:34;22.20;71.60
76293;DHT22;67256;51.154;4.164;2023-09-07T01:39:00;22.10;71.90
76293;DHT22;67256;51.154;4.164;2023-09-07T01:41:25;22.10;71.90
76293;DHT22;67256;51.154;4.164;2023-09-07T01:43:51;22.10;72.00
76293;DHT22;67256;51.154;4.164;2023-09-07T01:46:16;22.00;72.30
76293;DHT22;67256;51.154;4.164;2023-09-07T01:48:43;22.00;72.20
76293;DHT22;67256;51.154;4.164;2023-09-07T01:51:08;21.90;72.70
76293;DHT22;67256;51.154;4.164;2023-09-07T01:53:34;21.90;72.70
76293;DHT22;67256;51.154;4.164;2023-09-07T01:55:59;21.90;72.50
76293;DHT22;67256;51.154;4.164;2023-09-07T01:58:25;21.90;72.40
76293;DHT22;67256;51.154;4.164;2023-09-07T02:00:57;21.90;72.20
76293;DHT22;67256;51.154;4.164;2023-09-07T02:03:24;21.90;72.20
76293;DHT22;67256;51.154;4.164;2023-09-07T02:05:49;21.90;72.30
76293;DHT22;67256;51.154;4.164;2023-09-07T02:08:15;21.90;72.20
76293;DHT22;67256;51.154;4.164;2023-09-07T02:10:40;21.80;72.80
76293;DHT22;67256;51.154;4.164;2023-09-07T02:13:06;21.80;72.70
76293;DHT22;67256;51.154;4.164;2023-09-07T02:15:31;21.70;72.60
76293;DHT22;67256;51.154;4.164;2023-09-07T02:17:57;21.70;73.00
76293;DHT22;67256;51.154;4.164;2023-09-07T02:20:22;21.70;72.80
76293;DHT22;67256;51.154;4.164;2023-09-07T02:22:48;21.70;72.60
76293;DHT22;67256;51.154;4.164;2023-09-07T02:25:13;21.80;72.20
76293;DHT22;67256;51.154;4.164;2023-09-07T02:27:40;21.80;71.80
76293;DHT22;67256;51.154;4.164;2023-09-07T02:30:06;21.80;72.00
76293;DHT22;67256;51.154;4.164;2023-09-07T02:32:31;21.80;72.20
76293;DHT22;67256;51.154;4.164;2023-09-07T02:34:57;21.70;72.40
76293;DHT22;67256;51.154;4.164;2023-09-07T02:37:23;21.70;72.40
76293;DHT22;67256;51.154;4.164;2023-09-07T02:39:48;21.60;72.60
76293;DHT22;67256;51.154;4.164;2023-09-07T02:42:14;21.60;72.70
76293;DHT22;67256;51.154;4.164;2023-09-07T02:44:40;21.60;72.30
76293;DHT22;67256;51.154;4.164;2023-09-07T02:47:06;21.60;72.60
76293;DHT22;67256;51.154;4.164;2023-09-07T02:49:31;21.50;72.50
76293;DHT22;67256;51.154;4.164;2023-09-07T02:51:57;21.50;72.70
76293;DHT22;67256;51.154;4.164;2023-09-07T02:54:22;21.50;72.70
76293;DHT22;67256;51.154;4.164;2023-09-07T02:56:48;21.50;72.60
76293;DHT22;67256;51.154;4.164;2023-09-07T02:59:14;21.50;72.40
76293;DHT22;67256;51.154;4.164;2023-09-07T03:01:39;21.50;72.50
76293;DHT22;67256;51.154;4.164;2023-09-07T03:04:05;21.40;72.70
76293;DHT22;67256;51.154;4.164;2023-09-07T03:06:31;21.40;72.80
76293;DHT22;67256;51.154;4.164;2023-09-07T03:08:56;21.40;72.80
76293;DHT22;67256;51.154;4.164;2023-09-07T03:11:22;21.40;73.30
76293;DHT22;67256;51.154;4.164;2023-09-07T03:13:48;21.30;72.70
76293;DHT22;67256;51.154;4.164;2023-09-07T03:16:13;21.30;72.70
76293;DHT22;67256;51.154;4.164;2023-09-07T03:18:39;21.30;72.80
76293;DHT22;67256;51.154;4.164;2023-09-07T03:21:06;21.30;72.60
76293;DHT22;67256;51.154;4.164;2023-09-07T03:23:32;21.30;72.70
76293;DHT22;67256;51.154;4.164;2023-09-07T03:25:58;21.40;72.80
76293;DHT22;67256;51.154;4.164;2023-09-07T03:28:23;21.30;72.70
76293;DHT22;67256;51.154;4.164;2023-09-07T03:30:51;21.30;72.50
76293;DHT22;67256;51.154;4.164;2023-09-07T03:33:16;21.20;72.80
76293;DHT22;67256;51.154;4.164;2023-09-07T03:35:42;21.20;73.00
76293;DHT22;67256;51.154;4.164;2023-09-07T03:38:07;21.20;72.80
76293;DHT22;67256;51.154;4.164;2023-09-07T03:40:33;21.20;72.70
76293;DHT22;67256;51.154;4.164;2023-09-07T03:42:59;21.20;72.70
76293;DHT22;67256;51.154;4.164;2023-09-07T03:45:24;21.20;72.80
76293;DHT22;67256;51.154;4.164;2023-09-07T03:47:50;21.20;72.80
76293;DHT22;67256;51.154;4.164;2023-09-07T03:50:16;21.20;72.60
76293;DHT22;67256;51.154;4.164;2023-09-07T03:52:43;21.20;72.90
76293;DHT22;67256;51.154;4.164;2023-09-07T03:55:09;21.10;72.90
76293;DHT22;67256;51.154;4.164;2023-09-07T03:57:34;21.10;72.80
76293;DHT22;67256;51.154;4.164;2023-09-07T04:00:00;21.10;72.60
76293;DHT22;67256;51.154;4.164;2023-09-07T04:02:26;21.10;73.10
76293;DHT22;67256;51.154;4.164;2023-09-07T04:04:53;21.00;73.10
76293;DHT22;67256;51.154;4.164;2023-09-07T04:07:19;21.10;72.90
76293;DHT22;67256;51.154;4.164;2023-09-07T04:09:45;21.00;73.10
76293;DHT22;67256;51.154;4.164;2023-09-07T04:12:11;21.00;73.30
76293;DHT22;67256;51.154;4.164;2023-09-07T04:14:36;21.00;73.20
76293;DHT22;67256;51.154;4.164;2023-09-07T04:17:02;20.90;73.30
76293;DHT22;67256;51.154;4.164;2023-09-07T04:19:27;20.90;73.40
76293;DHT22;67256;51.154;4.164;2023-09-07T04:21:53;20.90;73.50
76293;DHT22;67256;51.154;4.164;2023-09-07T04:24:19;20.90;73.20
76293;DHT22;67256;51.154;4.164;2023-09-07T04:26:45;20.90;73.50
76293;DHT22;67256;51.154;4.164;2023-09-07T04:29:11;20.90;73.10
76293;DHT22;67256;51.154;4.164;2023-09-07T04:31:38;20.80;73.40
76293;DHT22;67256;51.154;4.164;2023-09-07T04:34:03;20.80;73.60
76293;DHT22;67256;51.154;4.164;2023-09-07T04:36:29;20.80;73.20
76293;DHT22;67256;51.154;4.164;2023-09-07T04:38:55;20.70;74.10
76293;DHT22;67256;51.154;4.164;2023-09-07T04:41:21;20.60;74.20
76293;DHT22;67256;51.154;4.164;2023-09-07T04:43:47;20.50;74.20
76293;DHT22;67256;51.154;4.164;2023-09-07T04:46:12;20.30;74.90
76293;DHT22;67256;51.154;4.164;2023-09-07T04:48:40;20.20;75.30
76293;DHT22;67256;51.154;4.164;2023-09-07T04:51:06;20.30;75.30
76293;DHT22;67256;51.154;4.164;2023-09-07T04:53:33;20.20;75.20
76293;DHT22;67256;51.154;4.164;2023-09-07T04:56:00;20.20;75.50
76293;DHT22;67256;51.154;4.164;2023-09-07T04:58:26;20.20;75.40
76293;DHT22;67256;51.154;4.164;2023-09-07T05:00:52;20.20;75.30
76293;DHT22;67256;51.154;4.164;2023-09-07T05:03:17;20.10;75.10
76293;DHT22;67256;51.154;4.164;2023-09-07T05:05:43;19.90;75.60
76293;DHT22;67256;51.154;4.164;2023-09-07T05:08:11;19.80;76.90
76293;DHT22;67256;51.154;4.164;2023-09-07T05:10:38;19.70;77.20
76293;DHT22;67256;51.154;4.164;2023-09-07T05:13:03;19.90;76.80
76293;DHT22;67256;51.154;4.164;2023-09-07T05:15:29;19.90;76.30
76293;DHT22;67256;51.154;4.164;2023-09-07T05:17:55;20.00;76.20
76293;DHT22;67256;51.154;4.164;2023-09-07T05:20:20;20.00;75.90
76293;DHT22;67256;51.154;4.164;2023-09-07T05:22:47;20.00;76.30
76293;DHT22;67256;51.154;4.164;2023-09-07T05:25:13;20.00;76.20
76293;DHT22;67256;51.154;4.164;2023-09-07T05:27:38;20.10;76.00
76293;DHT22;67256;51.154;4.164;2023-09-07T05:30:04;20.10;75.70
76293;DHT22;67256;51.154;4.164;2023-09-07T05:32:30;20.10;75.50
76293;DHT22;67256;51.154;4.164;2023-09-07T05:34:56;20.20;75.50
76293;DHT22;67256;51.154;4.164;2023-09-07T05:37:21;20.20;75.50
76293;DHT22;67256;51.154;4.164;2023-09-07T05:39:47;20.30;75.30
76293;DHT22;67256;51.154;4.164;2023-09-07T05:42:14;20.40;75.10
76293;DHT22;67256;51.154;4.164;2023-09-07T05:44:39;20.40;75.00
76293;DHT22;67256;51.154;4.164;2023-09-07T05:47:05;20.50;74.60
76293;DHT22;67256;51.154;4.164;2023-09-07T05:49:31;20.60;74.40
76293;DHT22;67256;51.154;4.164;2023-09-07T05:51:57;20.60;74.30
76293;DHT22;67256;51.154;4.164;2023-09-07T05:54:23;20.70;74.40
76293;DHT22;67256;51.154;4.164;2023-09-07T05:56:48;20.70;74.20
76293;DHT22;67256;51.154;4.164;2023-09-07T05:59:14;20.80;74.00
76293;DHT22;67256;51.154;4.164;2023-09-07T06:01:40;20.90;73.90
76293;DHT22;67256;51.154;4.164;2023-09-07T06:04:06;20.90;73.80
76293;DHT22;67256;51.154;4.164;2023-09-07T06:06:31;20.90;74.00
76293;DHT22;67256;51.154;4.164;2023-09-07T06:08:57;21.00;74.00
76293;DHT22;67256;51.154;4.164;2023-09-07T06:11:24;21.00;73.70
76293;DHT22;67256;51.154;4.164;2023-09-07T06:13:50;21.00;73.50
76293;DHT22;67256;51.154;4.164;2023-09-07T06:16:16;21.10;73.50
76293;DHT22;67256;51.154;4.164;2023-09-07T06:18:41;21.10;73.50
76293;DHT22;67256;51.154;4.164;2023-09-07T06:21:07;21.10;73.60
76293;DHT22;67256;51.154;4.164;2023-09-07T06:23:32;21.10;73.50
76293;DHT22;67256;51.154;4.164;2023-09-07T06:25:59;21.00;73.70
76293;DHT22;67256;51.154;4.164;2023-09-07T06:28:25;21.10;73.90
76293;DHT22;67256;51.154;4.164;2023-09-07T06:30:50;21.10;73.50
76293;DHT22;67256;51.154;4.164;2023-09-07T06:33:16;21.10;73.50
76293;DHT22;67256;51.154;4.164;2023-09-07T06:35:42;21.20;73.60
76293;DHT22;67256;51.154;4.164;2023-09-07T06:38:08;21.20;73.60
76293;DHT22;67256;51.154;4.164;2023-09-07T06:40:33;21.20;73.60
76293;DHT22;67256;51.154;4.164;2023-09-07T06:42:59;21.20;73.70
76293;DHT22;67256;51.154;4.164;2023-09-07T06:45:25;21.30;73.70
76293;DHT22;67256;51.154;4.164;2023-09-07T06:47:51;21.30;73.90
76293;DHT22;67256;51.154;4.164;2023-09-07T06:50:17;21.20;73.80
76293;DHT22;67256;51.154;4.164;2023-09-07T06:52:42;21.30;73.80
76293;DHT22;67256;51.154;4.164;2023-09-07T06:55:08;21.30;73.70
76293;DHT22;67256;51.154;4.164;2023-09-07T06:57:33;21.30;73.90
76293;DHT22;67256;51.154;4.164;2023-09-07T06:59:59;21.30;73.90
76293;DHT22;67256;51.154;4.164;2023-09-07T07:02:24;21.30;74.00
76293;DHT22;67256;51.154;4.164;2023-09-07T07:04:50;21.30;73.90
76293;DHT22;67256;51.154;4.164;2023-09-07T07:07:16;21.40;74.00
76293;DHT22;67256;51.154;4.164;2023-09-07T07:09:42;21.40;73.70
76293;DHT22;67256;51.154;4.164;2023-09-07T07:12:07;21.40;73.80
76293;DHT22;67256;51.154;4.164;2023-09-07T07:14:33;21.50;73.80
76293;DHT22;67256;51.154;4.164;2023-09-07T07:16:58;21.40;73.70
76293;DHT22;67256;51.154;4.164;2023-09-07T07:19:24;21.50;74.00
76293;DHT22;67256;51.154;4.164;2023-09-07T07:21:50;21.50;74.30
76293;DHT22;67256;51.154;4.164;2023-09-07T07:24:16;21.50;74.10
76293;DHT22;67256;51.154;4.164;2023-09-07T07:26:43;21.60;74.20
76293;DHT22;67256;51.154;4.164;2023-09-07T07:29:08;21.60;74.00
76293;DHT22;67256;51.154;4.164;2023-09-07T07:31:34;21.70;74.00
76293;DHT22;67256;51.154;4.164;2023-09-07T07:34:00;21.70;73.70
76293;DHT22;67256;51.154;4.164;2023-09-07T07:36:25;21.70;73.80
76293;DHT22;67256;51.154;4.164;2023-09-07T07:38:51;21.80;73.90
76293;DHT22;67256;51.154;4.164;2023-09-07T07:41:16;21.80;74.10
76293;DHT22;67256;51.154;4.164;2023-09-07T07:43:42;21.80;74.20
76293;DHT22;67256;51.154;4.164;2023-09-07T07:46:08;21.80;73.60
76293;DHT22;67256;51.154;4.164;2023-09-07T07:48:34;21.90;73.60
76293;DHT22;67256;51.154;4.164;2023-09-07T07:51:03;21.80;73.50
76293;DHT22;67256;51.154;4.164;2023-09-07T07:53:30;21.80;73.10
76293;DHT22;67256;51.154;4.164;2023-09-07T07:55:56;21.80;73.10
76293;DHT22;67256;51.154;4.164;2023-09-07T07:58:22;21.80;72.90
76293;DHT22;67256;51.154;4.164;2023-09-07T08:00:48;21.90;72.80
76293;DHT22;67256;51.154;4.164;2023-09-07T08:03:14;21.90;72.50
76293;DHT22;67256;51.154;4.164;2023-09-07T08:05:40;22.00;72.60
76293;DHT22;67256;51.154;4.164;2023-09-07T08:08:06;22.00;73.30
76293;DHT22;67256;51.154;4.164;2023-09-07T08:10:35;22.10;72.20
76293;DHT22;67256;51.154;4.164;2023-09-07T08:13:02;22.10;72.20
76293;DHT22;67256;51.154;4.164;2023-09-07T08:15:28;22.10;71.60
76293;DHT22;67256;51.154;4.164;2023-09-07T08:17:54;22.10;71.10
76293;DHT22;67256;51.154;4.164;2023-09-07T08:20:20;22.10;71.10
76293;DHT22;67256;51.154;4.164;2023-09-07T08:22:46;22.10;71.40
76293;DHT22;67256;51.154;4.164;2023-09-07T08:25:12;22.20;71.90
76293;DHT22;67256;51.154;4.164;2023-09-07T08:27:41;22.20;72.30
76293;DHT22;67256;51.154;4.164;2023-09-07T08:30:15;22.20;72.00
76293;DHT22;67256;51.154;4.164;2023-09-07T08:32:44;22.30;71.90
76293;DHT22;67256;51.154;4.164;2023-09-07T08:35:11;22.40;72.20
76293;DHT22;67256;51.154;4.164;2023-09-07T08:37:40;22.40;72.00
76293;DHT22;67256;51.154;4.164;2023-09-07T08:40:06;22.40;72.00
76293;DHT22;67256;51.154;4.164;2023-09-07T08:42:35;22.50;72.10
76293;DHT22;67256;51.154;4.164;2023-09-07T08:45:02;22.50;73.20
76293;DHT22;67256;51.154;4.164;2023-09-07T08:47:33;22.50;72.40
76293;DHT22;67256;51.154;4.164;2023-09-07T08:49:59;22.50;72.40
76293;DHT22;67256;51.154;4.164;2023-09-07T08:52:25;22.60;72.10
76293;DHT22;67256;51.154;4.164;2023-09-07T08:54:50;22.60;72.10
76293;DHT22;67256;51.154;4.164;2023-09-07T08:57:17;22.60;71.80
76293;DHT22;67256;51.154;4.164;2023-09-07T08:59:43;22.60;71.30
76293;DHT22;67256;51.154;4.164;2023-09-07T09:02:09;22.70;70.60
76293;DHT22;67256;51.154;4.164;2023-09-07T09:04:36;22.70;71.30
76293;DHT22;67256;51.154;4.164;2023-09-07T09:07:02;22.80;70.50
76293;DHT22;67256;51.154;4.164;2023-09-07T09:09:29;22.80;70.80
76293;DHT22;67256;51.154;4.164;2023-09-07T09:11:55;22.90;70.60
76293;DHT22;67256;51.154;4.164;2023-09-07T09:14:20;22.90;70.30
76293;DHT22;67256;51.154;4.164;2023-09-07T09:16:49;22.90;69.20
76293;DHT22;67256;51.154;4.164;2023-09-07T09:19:17;22.80;69.20
76293;DHT22;67256;51.154;4.164;2023-09-07T09:21:44;22.80;69.50
76293;DHT22;67256;51.154;4.164;2023-09-07T09:24:10;22.80;70.00
76293;DHT22;67256;51.154;4.164;2023-09-07T09:26:39;22.90;69.30
76293;DHT22;67256;51.154;4.164;2023-09-07T09:29:04;23.00;68.70
76293;DHT22;67256;51.154;4.164;2023-09-07T09:31:30;23.00;68.10
76293;DHT22;67256;51.154;4.164;2023-09-07T09:33:56;23.00;68.10
76293;DHT22;67256;51.154;4.164;2023-09-07T09:36:22;23.10;68.40
76293;DHT22;67256;51.154;4.164;2023-09-07T09:38:48;23.10;68.30
76293;DHT22;67256;51.154;4.164;2023-09-07T09:41:17;23.10;68.60
76293;DHT22;67256;51.154;4.164;2023-09-07T09:43:43;23.10;68.30
76293;DHT22;67256;51.154;4.164;2023-09-07T09:46:11;23.10;68.60
76293;DHT22;67256;51.154;4.164;2023-09-07T09:48:38;23.10;67.80
76293;DHT22;67256;51.154;4.164;2023-09-07T09:51:03;23.20;68.30
76293;DHT22;67256;51.154;4.164;2023-09-07T09:53:29;23.20;67.80
76293;DHT22;67256;51.154;4.164;2023-09-07T09:55:55;23.20;66.40
76293;DHT22;67256;51.154;4.164;2023-09-07T09:58:21;23.20;65.40
76293;DHT22;67256;51.154;4.164;2023-09-07T10:00:51;23.30;65.40
76293;DHT22;67256;51.154;4.164;2023-09-07T10:03:25;23.30;65.10
76293;DHT22;67256;51.154;4.164;2023-09-07T10:05:53;23.40;65.60
76293;DHT22;67256;51.154;4.164;2023-09-07T10:08:19;23.40;66.20
76293;DHT22;67256;51.154;4.164;2023-09-07T10:10:48;23.40;66.30
76293;DHT22;67256;51.154;4.164;2023-09-07T10:13:14;23.50;65.10
76293;DHT22;67256;51.154;4.164;2023-09-07T10:15:40;23.50;65.50
76293;DHT22;67256;51.154;4.164;2023-09-07T10:18:09;23.50;64.20
76293;DHT22;67256;51.154;4.164;2023-09-07T10:20:54;23.50;64.30
76293;DHT22;67256;51.154;4.164;2023-09-07T10:23:21;23.50;64.00
76293;DHT22;67256;51.154;4.164;2023-09-07T10:25:47;23.60;64.70
76293;DHT22;67256;51.154;4.164;2023-09-07T10:28:17;23.60;65.10
76293;DHT22;67256;51.154;4.164;2023-09-07T10:30:43;23.70;64.60
76293;DHT22;67256;51.154;4.164;2023-09-07T10:33:19;23.70;64.70
76293;DHT22;67256;51.154;4.164;2023-09-07T10:35:45;23.80;64.80
76293;DHT22;67256;51.154;4.164;2023-09-07T10:38:13;23.70;64.40
76293;DHT22;67256;51.154;4.164;2023-09-07T10:40:38;23.70;63.70
76293;DHT22;67256;51.154;4.164;2023-09-07T10:43:05;23.70;64.70
76293;DHT22;67256;51.154;4.164;2023-09-07T10:45:30;23.80;64.30
76293;DHT22;67256;51.154;4.164;2023-09-07T10:47:56;23.80;64.50
76293;DHT22;67256;51.154;4.164;2023-09-07T10:50:21;23.90;64.90
76293;DHT22;67256;51.154;4.164;2023-09-07T10:52:47;23.90;65.30
76293;DHT22;67256;51.154;4.164;2023-09-07T10:55:12;23.90;65.80
76293;DHT22;67256;51.154;4.164;2023-09-07T10:57:42;24.00;63.90
76293;DHT22;67256;51.154;4.164;2023-09-07T11:00:08;24.00;64.40
76293;DHT22;67256;51.154;4.164;2023-09-07T11:02:39;24.00;64.60
76293;DHT22;67256;51.154;4.164;2023-09-07T11:05:05;24.00;63.20
76293;DHT22;67256;51.154;4.164;2023-09-07T11:07:31;24.10;63.70
76293;DHT22;67256;51.154;4.164;2023-09-07T11:09:56;24.00;63.40
76293;DHT22;67256;51.154;4.164;2023-09-07T11:12:23;24.00;63.70
76293;DHT22;67256;51.154;4.164;2023-09-07T11:14:53;24.10;63.30
76293;DHT22;67256;51.154;4.164;2023-09-07T11:17:18;24.10;63.60
76293;DHT22;67256;51.154;4.164;2023-09-07T11:19:44;24.10;64.20
76293;DHT22;67256;51.154;4.164;2023-09-07T11:22:10;24.10;63.90
76293;DHT22;67256;51.154;4.164;2023-09-07T11:24:36;24.20;64.20
76293;DHT22;67256;51.154;4.164;2023-09-07T11:27:02;24.20;62.90
76293;DHT22;67256;51.154;4.164;2023-09-07T11:29:33;24.30;63.60
76293;DHT22;67256;51.154;4.164;2023-09-07T11:32:05;24.30;63.60
76293;DHT22;67256;51.154;4.164;2023-09-07T11:34:31;24.30;62.00
76293;DHT22;67256;51.154;4.164;2023-09-07T11:36:57;24.30;62.20
76293;DHT22;67256;51.154;4.164;2023-09-07T11:39:23;24.30;63.00
76293;DHT22;67256;51.154;4.164;2023-09-07T11:41:48;24.30;62.50
76293;DHT22;67256;51.154;4.164;2023-09-07T11:44:14;24.30;62.30
76293;DHT22;67256;51.154;4.164;2023-09-07T11:46:40;24.50;61.90
76293;DHT22;67256;51.154;4.164;2023-09-07T11:49:06;24.50;62.20
76293;DHT22;67256;51.154;4.164;2023-09-07T11:51:32;24.50;62.90
76293;DHT22;67256;51.154;4.164;2023-09-07T11:53:57;24.40;61.60
76293;DHT22;67256;51.154;4.164;2023-09-07T11:56:24;24.50;62.10
76293;DHT22;67256;51.154;4.164;2023-09-07T11:58:49;24.50;61.60
76293;DHT22;67256;51.154;4.164;2023-09-07T12:01:15;24.70;61.20
76293;DHT22;67256;51.154;4.164;2023-09-07T12:03:42;24.80;61.50
76293;DHT22;67256;51.154;4.164;2023-09-07T12:06:08;24.70;62.40
76293;DHT22;67256;51.154;4.164;2023-09-07T12:08:34;24.70;61.80
76293;DHT22;67256;51.154;4.164;2023-09-07T12:11:00;24.70;61.50
76293;DHT22;67256;51.154;4.164;2023-09-07T12:13:26;24.70;62.30
76293;DHT22;67256;51.154;4.164;2023-09-07T12:15:51;24.80;62.30
76293;DHT22;67256;51.154;4.164;2023-09-07T12:18:17;24.80;62.40
76293;DHT22;67256;51.154;4.164;2023-09-07T12:20:42;24.80;62.80
76293;DHT22;67256;51.154;4.164;2023-09-07T12:23:10;24.80;61.30
76293;DHT22;67256;51.154;4.164;2023-09-07T12:25:35;24.90;60.90
76293;DHT22;67256;51.154;4.164;2023-09-07T12:28:02;24.90;60.50
76293;DHT22;67256;51.154;4.164;2023-09-07T12:30:28;25.00;60.20
76293;DHT22;67256;51.154;4.164;2023-09-07T12:32:54;25.00;60.50
76293;DHT22;67256;51.154;4.164;2023-09-07T12:35:20;25.00;59.80
76293;DHT22;67256;51.154;4.164;2023-09-07T12:37:46;25.00;60.10
76293;DHT22;67256;51.154;4.164;2023-09-07T12:40:12;25.00;59.30
76293;DHT22;67256;51.154;4.164;2023-09-07T12:42:41;25.00;59.70
76293;DHT22;67256;51.154;4.164;2023-09-07T12:45:08;25.00;60.00
76293;DHT22;67256;51.154;4.164;2023-09-07T12:47:34;25.20;59.00
76293;DHT22;67256;51.154;4.164;2023-09-07T12:49:59;25.30;60.10
76293;DHT22;67256;51.154;4.164;2023-09-07T12:52:25;25.20;60.50
76293;DHT22;67256;51.154;4.164;2023-09-07T12:54:51;25.20;60.10
76293;DHT22;67256;51.154;4.164;2023-09-07T12:57:16;25.20;59.60
76293;DHT22;67256;51.154;4.164;2023-09-07T12:59:42;25.30;59.40
76293;DHT22;67256;51.154;4.164;2023-09-07T13:02:08;25.40;58.60
76293;DHT22;67256;51.154;4.164;2023-09-07T13:04:33;25.40;57.80
76293;DHT22;67256;51.154;4.164;2023-09-07T13:06:59;25.30;58.50
76293;DHT22;67256;51.154;4.164;2023-09-07T13:09:26;25.30;58.70
76293;DHT22;67256;51.154;4.164;2023-09-07T13:11:51;25.30;58.80
76293;DHT22;67256;51.154;4.164;2023-09-07T13:14:17;25.30;59.10
76293;DHT22;67256;51.154;4.164;2023-09-07T13:16:43;25.40;57.00
76293;DHT22;67256;51.154;4.164;2023-09-07T13:19:09;25.70;57.00
76293;DHT22;67256;51.154;4.164;2023-09-07T13:21:36;25.70;57.70
76293;DHT22;67256;51.154;4.164;2023-09-07T13:24:02;25.60;59.00
76293;DHT22;67256;51.154;4.164;2023-09-07T13:26:28;25.60;58.80
76293;DHT22;67256;51.154;4.164;2023-09-07T13:28:53;25.60;56.60
76293;DHT22;67256;51.154;4.164;2023-09-07T13:31:19;25.70;57.00
76293;DHT22;67256;51.154;4.164;2023-09-07T13:33:44;25.70;57.90
76293;DHT22;67256;51.154;4.164;2023-09-07T13:36:10;25.70;57.90
76293;DHT22;67256;51.154;4.164;2023-09-07T13:38:36;25.70;56.50
76293;DHT22;67256;51.154;4.164;2023-09-07T13:41:02;25.70;56.70
76293;DHT22;67256;51.154;4.164;2023-09-07T13:43:27;25.70;57.40
76293;DHT22;67256;51.154;4.164;2023-09-07T13:45:53;25.70;57.60
76293;DHT22;67256;51.154;4.164;2023-09-07T13:48:18;25.70;59.70
76293;DHT22;67256;51.154;4.164;2023-09-07T13:50:44;25.70;59.80
76293;DHT22;67256;51.154;4.164;2023-09-07T13:53:10;25.70;59.00
76293;DHT22;67256;51.154;4.164;2023-09-07T13:55:35;25.70;57.60
76293;DHT22;67256;51.154;4.164;2023-09-07T13:58:05;25.80;57.80
76293;DHT22;67256;51.154;4.164;2023-09-07T14:00:31;25.80;56.80
76293;DHT22;67256;51.154;4.164;2023-09-07T14:02:57;25.80;58.50
76293;DHT22;67256;51.154;4.164;2023-09-07T14:05:22;25.90;57.70
76293;DHT22;67256;51.154;4.164;2023-09-07T14:07:48;25.90;58.00
76293;DHT22;67256;51.154;4.164;2023-09-07T14:10:13;25.90;58.30
76293;DHT22;67256;51.154;4.164;2023-09-07T14:12:39;25.90;58.70
76293;DHT22;67256;51.154;4.164;2023-09-07T14:15:05;25.90;57.30
76293;DHT22;67256;51.154;4.164;2023-09-07T14:17:30;25.90;57.20
76293;DHT22;67256;51.154;4.164;2023-09-07T14:19:56;25.90;58.50
76293;DHT22;67256;51.154;4.164;2023-09-07T14:22:21;25.90;58.40
76293;DHT22;67256;51.154;4.164;2023-09-07T14:24:47;26.00;59.50
76293;DHT22;67256;51.154;4.164;2023-09-07T14:27:13;26.00;57.70
76293;DHT22;67256;51.154;4.164;2023-09-07T14:29:39;26.00;59.00
76293;DHT22;67256;51.154;4.164;2023-09-07T14:32:04;26.00;57.70
76293;DHT22;67256;51.154;4.164;2023-09-07T14:34:30;26.10;57.90
76293;DHT22;67256;51.154;4.164;2023-09-07T14:36:55;26.10;57.70
76293;DHT22;67256;51.154;4.164;2023-09-07T14:39:21;26.10;58.10
76293;DHT22;67256;51.154;4.164;2023-09-07T14:41:49;26.00;59.70
76293;DHT22;67256;51.154;4.164;2023-09-07T14:44:15;26.00;58.90
76293;DHT22;67256;51.154;4.164;2023-09-07T14:46:41;26.10;58.50
76293;DHT22;67256;51.154;4.164;2023-09-07T14:49:06;26.10;58.40
76293;DHT22;67256;51.154;4.164;2023-09-07T14:51:32;26.20;58.60
76293;DHT22;67256;51.154;4.164;2023-09-07T14:53:58;26.20;58.00
76293;DHT22;67256;51.154;4.164;2023-09-07T14:56:24;26.30;58.00
76293;DHT22;67256;51.154;4.164;2023-09-07T14:58:49;26.30;57.20
76293;DHT22;67256;51.154;4.164;2023-09-07T15:01:15;26.20;57.00
76293;DHT22;67256;51.154;4.164;2023-09-07T15:03:41;26.30;57.00
76293;DHT22;67256;51.154;4.164;2023-09-07T15:06:07;26.20;56.60
76293;DHT22;67256;51.154;4.164;2023-09-07T15:08:33;26.30;56.80
76293;DHT22;67256;51.154;4.164;2023-09-07T15:10:58;26.30;57.00
76293;DHT22;67256;51.154;4.164;2023-09-07T15:13:25;26.30;57.40
76293;DHT22;67256;51.154;4.164;2023-09-07T15:15:51;26.40;58.40
76293;DHT22;67256;51.154;4.164;2023-09-07T15:18:17;26.40;58.60
76293;DHT22;67256;51.154;4.164;2023-09-07T15:20:42;26.40;57.60
76293;DHT22;67256;51.154;4.164;2023-09-07T15:23:09;26.40;58.20